YPTN/KTR METAR and TAF weather

Enter ICAO airport designator
Station Type Date Time Source
YPTN METAR 2019/02/17 16:00 UTC NOAA

YPTN 171600Z AUTO 35004KT 9999 // NCD 25/22 Q1010


Station Type Date Time Source
YPTN Decoded METAR 2019/02/17 16:00 UTC NOAA

Tindal / Katherine, Australia (YPTN) 14-26S 132-16E 109M
Feb 17, 2019 - 11:00 AM EST / 2019.02.17 1600 UTC
Wind: from the N (350 degrees) at 5 MPH (4 KT):0
Visibility: greater than 7 mile(s):0
Temperature: 77 F (25 C)
Dew Point: 71 F (22 C)
Relative Humidity: 83%
Pressure (altimeter): 29.83 in. Hg (1010 hPa)
ob: YPTN 171600Z AUTO 35004KT 9999 // NCD 25/22 Q1010
cycle: 16

Station Type Date Time Source
YPTN TAF 2019/02/17 12:33 UTC NOAA

TAF YPTN 171107Z 1712/1812 31006KT 9999 FEW040 PROB30
TEMPO 1806/1812 VRB20G40KT 1000 TSRA BKN010 SCT030CB


Example: see airport list